createdAt,value
2023-02-17T00:01:24.469Z,101895.69
2023-02-17T00:03:53.510Z,101895.78
2023-02-17T00:06:22.480Z,101901.63
2023-02-17T00:08:50.070Z,101896.56
2023-02-17T00:11:18.395Z,101894.34
2023-02-17T00:13:46.460Z,101893.41
2023-02-17T00:16:18.409Z,101891.44
2023-02-17T00:18:46.717Z,101896.66
2023-02-17T00:21:17.444Z,101892.97
2023-02-17T00:23:46.233Z,101900.47
2023-02-17T00:26:14.354Z,101898.84
2023-02-17T00:28:44.569Z,101902.00
2023-02-17T00:31:17.389Z,101901.94
2023-02-17T00:33:45.146Z,101899.25
2023-02-17T00:36:15.860Z,101901.63
2023-02-17T00:38:43.538Z,101901.75
2023-02-17T00:41:10.927Z,101900.13
2023-02-17T00:43:38.987Z,101900.97
2023-02-17T00:46:06.790Z,101900.31
2023-02-17T00:48:34.593Z,101898.53
2023-02-17T00:51:02.101Z,101893.50
2023-02-17T00:53:29.865Z,101898.31
2023-02-17T00:55:57.312Z,101896.41
2023-02-17T00:58:25.394Z,101889.63
2023-02-17T01:00:52.791Z,101896.63
2023-02-17T01:03:20.245Z,101889.59
2023-02-17T01:05:49.586Z,101894.47
2023-02-17T01:08:18.549Z,101899.88
2023-02-17T01:10:47.041Z,101898.97
2023-02-17T01:13:17.229Z,101883.69
2023-02-17T01:15:49.929Z,101885.75
2023-02-17T01:18:19.248Z,101890.00
2023-02-17T01:20:47.041Z,101891.56
2023-02-17T01:23:14.820Z,101894.72
2023-02-17T01:25:45.590Z,101892.00
2023-02-17T01:28:19.912Z,101887.53
2023-02-17T01:30:48.401Z,101889.59
2023-02-17T01:33:16.037Z,101884.41
2023-02-17T01:35:43.642Z,101889.38
2023-02-17T01:38:12.976Z,101883.91
2023-02-17T01:40:47.566Z,101891.59
2023-02-17T01:43:17.706Z,101891.56
2023-02-17T01:45:53.702Z,101892.22
2023-02-17T01:48:25.746Z,101885.72
2023-02-17T01:51:09.788Z,101888.56
2023-02-17T01:53:58.389Z,101874.84
2023-02-17T01:56:27.026Z,101872.19
2023-02-17T01:59:01.722Z,101876.59
2023-02-17T02:01:32.146Z,101878.41
2023-02-17T02:04:03.615Z,101883.44
2023-02-17T02:06:34.265Z,101885.06
2023-02-17T02:09:11.805Z,101875.81
2023-02-17T02:11:39.522Z,101887.16
2023-02-17T02:14:09.238Z,101883.91
2023-02-17T02:16:50.948Z,101884.97
2023-02-17T02:19:24.376Z,101892.56
2023-02-17T02:21:51.697Z,101887.44
2023-02-17T02:24:39.321Z,101889.19
2023-02-17T02:27:28.144Z,101889.19
2023-02-17T02:30:39.980Z,101883.50
2023-02-17T02:33:20.757Z,101881.34
2023-02-17T02:36:08.444Z,101889.78
2023-02-17T02:38:43.177Z,101896.63
2023-02-17T02:41:19.806Z,101890.75
2023-02-17T02:43:49.557Z,101899.19
2023-02-17T02:46:17.351Z,101897.47
2023-02-17T02:48:45.998Z,101901.69
2023-02-17T02:51:55.329Z,101910.38
2023-02-17T02:54:50.695Z,101903.75
2023-02-17T02:57:31.296Z,101910.81
2023-02-17T03:00:17.918Z,101904.59
2023-02-17T03:02:59.989Z,101910.31
2023-02-17T03:05:37.000Z,101908.41
2023-02-17T03:08:12.839Z,101905.00
2023-02-17T03:10:54.127Z,101900.03
2023-02-17T03:13:22.051Z,101893.00
2023-02-17T03:15:50.056Z,101906.56
2023-02-17T03:18:17.472Z,101908.84
2023-02-17T03:20:53.360Z,101908.28
2023-02-17T03:23:21.241Z,101907.38
2023-02-17T03:25:50.065Z,101906.50
2023-02-17T03:28:18.840Z,101905.94
2023-02-17T03:30:47.122Z,101908.59
2023-02-17T03:33:14.481Z,101908.28
2023-02-17T03:35:41.840Z,101906.47
2023-02-17T03:38:09.354Z,101913.22
2023-02-17T03:40:36.794Z,101914.97
2023-02-17T03:43:04.240Z,101913.75
2023-02-17T03:45:32.210Z,101912.88
2023-02-17T03:47:59.994Z,101912.28
2023-02-17T03:50:27.353Z,101921.66
2023-02-17T03:52:54.776Z,101919.25
2023-02-17T03:55:22.212Z,101919.16
2023-02-17T03:57:49.605Z,101920.78
2023-02-17T04:00:17.265Z,101922.19
2023-02-17T04:02:44.714Z,101919.31
2023-02-17T04:05:12.251Z,101916.78
2023-02-17T04:07:39.736Z,101918.47
2023-02-17T04:10:09.547Z,101916.78
2023-02-17T04:12:37.120Z,101920.63
2023-02-17T04:15:04.734Z,101927.31
2023-02-17T04:17:32.424Z,101923.94
2023-02-17T04:20:00.188Z,101932.16
2023-02-17T04:22:27.600Z,101928.81
2023-02-17T04:24:55.044Z,101923.53
2023-02-17T04:27:22.635Z,101933.03
2023-02-17T04:29:51.967Z,101936.56
2023-02-17T04:32:19.394Z,101932.97
2023-02-17T04:34:46.775Z,101941.50
2023-02-17T04:37:14.156Z,101931.88
2023-02-17T04:39:41.666Z,101938.72
2023-02-17T04:42:09.129Z,101932.63
2023-02-17T04:44:36.646Z,101926.63
2023-02-17T04:47:04.428Z,101935.09
2023-02-17T04:49:32.431Z,101936.31
2023-02-17T04:52:00.386Z,101944.91
2023-02-17T04:54:28.325Z,101947.66
2023-02-17T04:56:56.873Z,101945.03
2023-02-17T04:59:25.669Z,101945.91
2023-02-17T05:01:56.328Z,101946.06
2023-02-17T05:04:27.499Z,101949.28
2023-02-17T05:06:55.241Z,101946.63
2023-02-17T05:09:23.864Z,101950.28
2023-02-17T05:11:51.864Z,101953.16
2023-02-17T05:14:23.015Z,101952.06
2023-02-17T05:16:51.203Z,101952.78
2023-02-17T05:19:19.036Z,101958.75
2023-02-17T05:21:46.684Z,101962.03
2023-02-17T05:24:14.555Z,101961.13
2023-02-17T05:26:42.456Z,101964.50
2023-02-17T05:29:10.643Z,101958.28
2023-02-17T05:31:39.299Z,101967.47
2023-02-17T05:34:08.125Z,101968.75
2023-02-17T05:36:36.952Z,101970.16
2023-02-17T05:39:05.096Z,101959.88
2023-02-17T05:41:36.540Z,101975.75
2023-02-17T05:44:04.424Z,101964.69
2023-02-17T05:46:33.451Z,101964.56
2023-02-17T05:49:03.767Z,101964.09
2023-02-17T05:51:32.996Z,101960.94
2023-02-17T05:54:00.970Z,101971.53
2023-02-17T05:56:29.066Z,101970.19
2023-02-17T05:58:57.048Z,101970.00
2023-02-17T06:01:25.542Z,101964.00
2023-02-17T06:03:56.387Z,101974.56
2023-02-17T06:06:24.610Z,101974.25
2023-02-17T06:08:53.315Z,101965.41
2023-02-17T06:11:25.755Z,101965.78
2023-02-17T06:13:54.967Z,101973.97
2023-02-17T06:16:22.636Z,101961.25
2023-02-17T06:18:51.454Z,101972.75
2023-02-17T06:21:19.431Z,101969.31
2023-02-17T06:23:47.692Z,101965.69
2023-02-17T06:26:16.040Z,101967.06
2023-02-17T06:28:45.056Z,101979.59
2023-02-17T06:31:13.427Z,101972.66
2023-02-17T06:33:42.551Z,101982.25
2023-02-17T06:36:10.699Z,101980.34
2023-02-17T06:38:38.247Z,101965.28
2023-02-17T06:41:07.100Z,101971.91
2023-02-17T06:43:34.660Z,101969.16
2023-02-17T06:46:02.491Z,101983.63
2023-02-17T06:48:33.488Z,101974.47
2023-02-17T06:51:01.684Z,101983.06
2023-02-17T06:53:29.635Z,101971.94
2023-02-17T06:55:57.357Z,101975.53
2023-02-17T06:58:28.160Z,101977.81
2023-02-17T07:00:55.738Z,101985.53
2023-02-17T07:03:24.745Z,101987.34
2023-02-17T07:05:52.325Z,101992.97
2023-02-17T07:08:19.941Z,101995.81
2023-02-17T07:10:47.592Z,101984.00
2023-02-17T07:13:15.245Z,101989.44
2023-02-17T07:15:42.947Z,101995.25
2023-02-17T07:18:12.361Z,101984.84
2023-02-17T07:20:40.011Z,101980.69
2023-02-17T07:23:07.740Z,101978.56
2023-02-17T07:25:35.267Z,101972.19
2023-02-17T07:28:03.142Z,101983.31
2023-02-17T07:30:32.344Z,101983.94
2023-02-17T07:33:00.105Z,101990.81
2023-02-17T07:35:27.708Z,101994.06
2023-02-17T07:37:58.554Z,101981.97
2023-02-17T07:40:26.463Z,101991.31
2023-02-17T07:42:54.628Z,101985.38
2023-02-17T07:45:22.899Z,101985.41
2023-02-17T07:47:50.532Z,101994.25
2023-02-17T07:50:18.998Z,101981.75
2023-02-17T07:52:46.833Z,101984.03
2023-02-17T07:55:14.726Z,101997.13
2023-02-17T07:57:42.474Z,101997.78
2023-02-17T08:00:12.581Z,101987.25
2023-02-17T08:02:44.288Z,101993.00
2023-02-17T08:05:12.227Z,101986.63
2023-02-17T08:07:39.796Z,101994.22
2023-02-17T08:10:26.643Z,101986.53
2023-02-17T08:13:12.938Z,101988.72
2023-02-17T08:15:41.775Z,101989.28
2023-02-17T08:18:11.479Z,101984.25
2023-02-17T08:20:39.278Z,101989.84
2023-02-17T08:23:07.035Z,101988.91
2023-02-17T08:25:36.553Z,101989.88
2023-02-17T08:28:09.105Z,101985.31
2023-02-17T08:30:37.395Z,101989.97
2023-02-17T08:33:08.957Z,101992.28
2023-02-17T08:35:36.993Z,101985.81
2023-02-17T08:38:04.914Z,101986.78
2023-02-17T08:40:32.455Z,101987.59
2023-02-17T08:43:03.487Z,101978.50
2023-02-17T08:45:31.447Z,101968.69
2023-02-17T08:47:59.666Z,101969.69
2023-02-17T08:50:27.235Z,101973.13
2023-02-17T08:52:55.383Z,101972.84
2023-02-17T08:55:24.287Z,101962.31
2023-02-17T08:57:51.946Z,101971.41
2023-02-17T09:00:19.954Z,101956.31
2023-02-17T09:02:47.918Z,101971.16
2023-02-17T09:05:16.049Z,101957.03
2023-02-17T09:07:44.016Z,101968.06
2023-02-17T09:10:12.757Z,101949.56
2023-02-17T09:12:41.516Z,101965.22
2023-02-17T09:15:10.346Z,101947.94
2023-02-17T09:17:41.881Z,101951.31
2023-02-17T09:20:23.885Z,101943.69
2023-02-17T09:22:52.722Z,101942.34
2023-02-17T09:25:20.899Z,101936.72
2023-02-17T09:27:48.874Z,101931.66
2023-02-17T09:30:16.796Z,101919.66
2023-02-17T09:32:44.719Z,101928.91
2023-02-17T09:35:17.594Z,101921.44
2023-02-17T09:37:45.727Z,101932.94
2023-02-17T09:40:30.597Z,101915.50
2023-02-17T09:42:58.768Z,101922.41
2023-02-17T09:45:33.457Z,101921.06
2023-02-17T09:48:06.375Z,101922.25
2023-02-17T09:50:51.076Z,101910.91
2023-02-17T09:53:53.814Z,101916.06
2023-02-17T09:56:33.561Z,101917.50
2023-02-17T09:59:07.764Z,101912.59
2023-02-17T10:01:36.130Z,101907.28
2023-02-17T10:04:11.934Z,101911.22
2023-02-17T10:06:43.809Z,101916.16
2023-02-17T10:09:36.764Z,101915.50
2023-02-17T10:12:10.525Z,101910.72
2023-02-17T10:14:46.082Z,101914.25
2023-02-17T10:17:32.456Z,101919.75
2023-02-17T10:20:11.862Z,101909.53
2023-02-17T10:22:43.368Z,101917.06
2023-02-17T10:25:20.330Z,101912.28
2023-02-17T10:28:09.403Z,101911.69
2023-02-17T10:30:48.036Z,101910.72
2023-02-17T10:33:34.474Z,101906.34
2023-02-17T10:36:13.176Z,101903.63
2023-02-17T10:38:53.076Z,101907.31
2023-02-17T10:41:28.429Z,101897.59
2023-02-17T10:43:56.469Z,101897.91
2023-02-17T10:46:29.770Z,101895.41
2023-02-17T10:48:59.694Z,101896.28
2023-02-17T10:51:30.506Z,101896.78
2023-02-17T10:54:12.380Z,101895.69
2023-02-17T10:56:42.059Z,101896.66
2023-02-17T10:59:17.585Z,101895.69
2023-02-17T11:01:45.414Z,101895.69
2023-02-17T11:04:14.221Z,101900.38
2023-02-17T11:06:51.476Z,101894.72
2023-02-17T11:09:28.835Z,101896.72
2023-02-17T11:12:03.073Z,101891.72
2023-02-17T11:14:33.899Z,101899.91
2023-02-17T11:17:04.612Z,101906.94
2023-02-17T11:19:35.132Z,101895.13
2023-02-17T11:22:05.991Z,101896.53
2023-02-17T11:24:35.320Z,101889.28
2023-02-17T11:27:12.364Z,101896.09
2023-02-17T11:29:40.419Z,101889.91
2023-02-17T11:32:12.857Z,101888.97
2023-02-17T11:34:43.029Z,101898.69
2023-02-17T11:37:13.824Z,101900.00
2023-02-17T11:39:43.818Z,101904.94
2023-02-17T11:42:21.316Z,101904.16
2023-02-17T11:44:50.378Z,101894.91
2023-02-17T11:47:40.199Z,101895.34
2023-02-17T11:50:38.941Z,101908.00
2023-02-17T11:53:28.818Z,101898.03
2023-02-17T11:56:09.057Z,101906.28
2023-02-17T11:58:49.012Z,101904.81
2023-02-17T12:02:15.206Z,101906.50
2023-02-17T12:05:24.721Z,101910.72
2023-02-17T12:08:06.492Z,101903.09
2023-02-17T12:10:46.516Z,101903.88
2023-02-17T12:13:14.354Z,101903.53
2023-02-17T12:16:09.128Z,101898.22
2023-02-17T12:19:06.280Z,101908.25
2023-02-17T12:21:55.371Z,101904.97
2023-02-17T12:24:43.875Z,101912.50
2023-02-17T12:27:33.661Z,101911.44
2023-02-17T12:30:39.715Z,101910.19
2023-02-17T12:33:16.602Z,101918.41
2023-02-17T12:35:44.151Z,101921.34
2023-02-17T12:38:17.182Z,101919.19
2023-02-17T12:41:16.136Z,101917.66
2023-02-17T12:44:07.584Z,101929.31
2023-02-17T12:46:47.941Z,101928.75
2023-02-17T12:49:31.033Z,101926.22
2023-02-17T12:52:01.917Z,101929.31
2023-02-17T12:54:52.534Z,101933.56
2023-02-17T12:57:46.865Z,101920.34
2023-02-17T13:00:46.658Z,101919.53
2023-02-17T13:03:14.990Z,101920.44
2023-02-17T13:06:04.657Z,101917.19
2023-02-17T13:08:43.528Z,101912.34
2023-02-17T13:11:28.104Z,101914.31
2023-02-17T13:13:55.808Z,101928.41
2023-02-17T13:16:23.847Z,101923.41
2023-02-17T13:18:52.736Z,101922.72
2023-02-17T13:21:27.928Z,101928.97
2023-02-17T13:24:15.734Z,101934.91
2023-02-17T13:26:44.674Z,101917.97
2023-02-17T13:29:27.156Z,101916.06
2023-02-17T13:32:04.049Z,101920.28
2023-02-17T13:34:35.463Z,101925.09
2023-02-17T13:37:18.601Z,101926.28
2023-02-17T13:39:46.944Z,101928.09
2023-02-17T13:42:35.675Z,101935.59
2023-02-17T13:45:33.987Z,101927.16
2023-02-17T13:48:32.345Z,101932.94
2023-02-17T13:51:02.032Z,101949.63
2023-02-17T13:53:38.672Z,101946.03
2023-02-17T13:56:11.748Z,101945.59
2023-02-17T13:58:44.070Z,101946.88
2023-02-17T14:01:18.113Z,101952.78
2023-02-17T14:03:55.550Z,101947.31
2023-02-17T14:06:29.101Z,101948.59
2023-02-17T14:08:57.328Z,101938.50
2023-02-17T14:11:31.280Z,101944.31
2023-02-17T14:14:01.236Z,101951.69
2023-02-17T14:16:33.897Z,101947.75
2023-02-17T14:19:16.645Z,101936.81
2023-02-17T14:22:02.298Z,101943.72
2023-02-17T14:24:38.790Z,101949.75
2023-02-17T14:27:11.193Z,101942.47
2023-02-17T14:29:49.661Z,101942.69
2023-02-17T14:32:38.350Z,101941.63
2023-02-17T14:35:13.300Z,101948.63
2023-02-17T14:37:42.526Z,101954.00
2023-02-17T14:40:20.553Z,101949.53
2023-02-17T14:42:48.484Z,101954.97
2023-02-17T14:45:16.972Z,101953.00
2023-02-17T14:47:44.736Z,101964.03
2023-02-17T14:50:13.147Z,101970.03
2023-02-17T14:52:48.798Z,101980.16
2023-02-17T14:55:26.944Z,101970.53
2023-02-17T14:57:54.905Z,101961.09
2023-02-17T15:00:22.879Z,101970.59
2023-02-17T15:02:51.597Z,101976.00
2023-02-17T15:05:19.834Z,101971.56
2023-02-17T15:07:47.368Z,101983.16
2023-02-17T15:10:29.374Z,101981.34
2023-02-17T15:12:57.348Z,101989.59
2023-02-17T15:15:25.032Z,101989.91
2023-02-17T15:17:52.514Z,101989.50
2023-02-17T15:20:20.064Z,101983.75
2023-02-17T15:22:47.691Z,101977.16
2023-02-17T15:25:32.913Z,101984.09
2023-02-17T15:28:00.361Z,101986.81
2023-02-17T15:30:28.631Z,101988.50
2023-02-17T15:32:56.109Z,101987.47
2023-02-17T15:35:26.707Z,101989.41
2023-02-17T15:37:56.746Z,101990.22
2023-02-17T15:40:26.322Z,101993.50
2023-02-17T15:42:57.054Z,101988.69
2023-02-17T15:45:25.426Z,101989.47
2023-02-17T15:48:02.758Z,101993.19
2023-02-17T15:50:30.223Z,101987.56
2023-02-17T15:52:57.631Z,101986.53
2023-02-17T15:55:26.235Z,102001.06
2023-02-17T15:57:57.069Z,101997.59
2023-02-17T16:00:27.573Z,101997.47
2023-02-17T16:02:55.706Z,101999.75
2023-02-17T16:05:27.454Z,101993.72
2023-02-17T16:07:55.416Z,102000.59
2023-02-17T16:10:29.636Z,102000.69
2023-02-17T16:12:59.764Z,101994.50
2023-02-17T16:15:31.001Z,101999.66
2023-02-17T16:17:59.130Z,101996.44
2023-02-17T16:20:35.357Z,101998.94
2023-02-17T16:23:03.290Z,101995.03
2023-02-17T16:25:31.119Z,102001.06
2023-02-17T16:27:58.637Z,101996.66
2023-02-17T16:30:35.961Z,101999.75
2023-02-17T16:33:04.018Z,101992.06
2023-02-17T16:35:32.824Z,102000.63
2023-02-17T16:38:00.492Z,102002.06
2023-02-17T16:40:32.858Z,101998.28
2023-02-17T16:43:00.513Z,102004.19
2023-02-17T16:45:31.721Z,102005.16
2023-02-17T16:48:00.894Z,101999.88
2023-02-17T16:50:30.940Z,101998.97
2023-02-17T16:53:01.461Z,102002.34
2023-02-17T16:55:32.019Z,102008.91
2023-02-17T16:57:59.902Z,102002.50
2023-02-17T17:00:30.038Z,102001.50
2023-02-17T17:02:58.523Z,101997.19
2023-02-17T17:05:28.292Z,102005.72
2023-02-17T17:07:56.432Z,102000.84
2023-02-17T17:10:28.154Z,102013.28
2023-02-17T17:12:55.789Z,101996.03
2023-02-17T17:15:23.936Z,101995.59
2023-02-17T17:17:56.924Z,101995.50
2023-02-17T17:20:31.354Z,101993.94
2023-02-17T17:23:00.698Z,102000.53
2023-02-17T17:25:29.388Z,102001.50
2023-02-17T17:27:57.630Z,102006.66
2023-02-17T17:30:31.631Z,102003.34
2023-02-17T17:32:59.487Z,102001.03
2023-02-17T17:35:27.548Z,101994.66
2023-02-17T17:37:55.550Z,101997.59
2023-02-17T17:40:48.720Z,101988.81
2023-02-17T17:43:19.045Z,101992.34
2023-02-17T17:45:47.647Z,102001.69
2023-02-17T17:48:16.659Z,101987.56
2023-02-17T17:50:44.456Z,101999.34
2023-02-17T17:53:11.862Z,101993.06
2023-02-17T17:55:39.368Z,101988.09
2023-02-17T17:58:06.881Z,101981.44
2023-02-17T18:00:34.418Z,101980.78
2023-02-17T18:03:01.895Z,101981.13
2023-02-17T18:05:29.586Z,101980.28
2023-02-17T18:07:57.127Z,101982.13
2023-02-17T18:10:24.737Z,101976.56
2023-02-17T18:12:52.235Z,101973.31
2023-02-17T18:15:19.991Z,101975.06
2023-02-17T18:17:48.685Z,101977.63
2023-02-17T18:20:16.225Z,101975.09
2023-02-17T18:22:43.684Z,101971.88
2023-02-17T18:25:11.194Z,101976.66
2023-02-17T18:27:46.731Z,101972.19
2023-02-17T18:30:20.532Z,101972.31
2023-02-17T18:32:48.661Z,101974.84
2023-02-17T18:35:16.799Z,101979.03
2023-02-17T18:37:45.371Z,101974.84
2023-02-17T18:40:17.660Z,101958.16
2023-02-17T18:42:48.597Z,101958.22
2023-02-17T18:45:16.618Z,101966.84
2023-02-17T18:47:44.443Z,101961.38
2023-02-17T18:50:12.846Z,101964.06
2023-02-17T18:52:41.875Z,101958.19
2023-02-17T18:55:09.930Z,101963.63
2023-02-17T18:57:37.666Z,101967.38
2023-02-17T19:00:09.606Z,101959.47
2023-02-17T19:02:38.412Z,101969.56
2023-02-17T19:05:07.881Z,101968.94
2023-02-17T19:07:35.529Z,101968.75
2023-02-17T19:10:03.648Z,101970.00
2023-02-17T19:12:31.210Z,101976.81
2023-02-17T19:14:58.615Z,101971.44
2023-02-17T19:17:26.116Z,101976.88
2023-02-17T19:19:53.537Z,101969.34
2023-02-17T19:22:21.019Z,101966.72
2023-02-17T19:24:52.806Z,101955.28
2023-02-17T19:27:23.871Z,101964.28
2023-02-17T19:29:51.283Z,101965.06
2023-02-17T19:32:18.771Z,101972.09
2023-02-17T19:34:46.232Z,101960.81
2023-02-17T19:37:13.593Z,101967.34
2023-02-17T19:39:41.104Z,101953.56
2023-02-17T19:42:08.766Z,101966.41
2023-02-17T19:44:36.140Z,101959.81
2023-02-17T19:47:03.555Z,101952.09
2023-02-17T19:49:31.667Z,101947.91
2023-02-17T19:51:59.077Z,101957.75
2023-02-17T19:54:26.536Z,101954.97
2023-02-17T19:56:53.964Z,101958.53
2023-02-17T19:59:21.462Z,101949.59
2023-02-17T20:01:49.042Z,101961.59
2023-02-17T20:04:16.912Z,101958.41
2023-02-17T20:06:47.812Z,101968.00
2023-02-17T20:09:19.477Z,101961.09
2023-02-17T20:11:48.428Z,101953.53
2023-02-17T20:14:16.112Z,101962.66
2023-02-17T20:16:43.535Z,101963.50
2023-02-17T20:19:10.900Z,101961.25
2023-02-17T20:21:38.791Z,101953.44
2023-02-17T20:24:06.586Z,101958.56
2023-02-17T20:26:40.569Z,101966.09
2023-02-17T20:29:08.628Z,101961.69
2023-02-17T20:31:37.859Z,101957.28
2023-02-17T20:34:07.199Z,101953.59
2023-02-17T20:36:34.898Z,101962.25
2023-02-17T20:39:02.839Z,101958.16
2023-02-17T20:41:30.452Z,101966.56
2023-02-17T20:44:01.573Z,101963.22
2023-02-17T20:46:29.997Z,101965.56
2023-02-17T20:48:57.444Z,101965.34
2023-02-17T20:51:24.956Z,101970.34
2023-02-17T20:53:52.514Z,101973.16
2023-02-17T20:56:23.233Z,101968.63
2023-02-17T20:58:51.799Z,101978.28
2023-02-17T21:01:19.841Z,101967.34
2023-02-17T21:03:48.063Z,101968.81
